createdAt,value
2023-05-11T05:50:47.089Z,1.63
2023-05-11T05:53:13.918Z,1.77
2023-05-11T05:55:40.817Z,1.23
2023-05-11T05:58:07.644Z,1.10
2023-05-11T06:00:35.915Z,1.30
2023-05-11T06:03:02.936Z,1.43
2023-05-11T06:05:29.877Z,1.90
2023-05-11T06:08:09.162Z,1.20
2023-05-11T06:10:37.340Z,1.80
2023-05-11T06:13:04.171Z,2.13
2023-05-11T06:15:31.099Z,1.40
2023-05-11T06:17:58.006Z,1.90
2023-05-11T06:20:25.002Z,1.70
2023-05-11T06:22:51.825Z,1.77
2023-05-11T06:25:18.702Z,1.20
2023-05-11T06:27:45.514Z,1.60
2023-05-11T06:30:12.635Z,1.60
2023-05-11T06:32:39.461Z,1.43
2023-05-11T06:35:06.799Z,1.93
2023-05-11T06:37:33.661Z,1.80
2023-05-11T06:40:00.474Z,1.70
2023-05-11T06:42:27.454Z,1.63
2023-05-11T06:44:54.259Z,2.70
2023-05-11T06:47:21.275Z,1.90
2023-05-11T06:49:48.639Z,1.47
2023-05-11T06:52:15.532Z,2.00
2023-05-11T06:54:42.430Z,1.50
2023-05-11T06:57:09.235Z,2.00
2023-05-11T06:59:36.584Z,1.73
2023-05-11T07:02:03.449Z,3.73
2023-05-11T07:04:30.328Z,1.80
2023-05-11T07:06:57.268Z,2.73
2023-05-11T07:09:24.183Z,2.03
2023-05-11T07:11:52.303Z,1.83
2023-05-11T07:14:19.353Z,1.97
2023-05-11T07:16:46.705Z,1.90
2023-05-11T07:19:13.735Z,3.40
2023-05-11T07:21:40.799Z,2.00
2023-05-11T07:24:07.675Z,1.50
2023-05-11T07:26:34.573Z,2.30
2023-05-11T07:29:01.471Z,1.50
2023-05-11T07:31:30.220Z,2.53
2023-05-11T07:33:57.252Z,2.20
2023-05-11T07:36:24.198Z,3.60
2023-05-11T07:38:52.329Z,2.30
2023-05-11T07:41:19.411Z,2.20
2023-05-11T07:43:46.548Z,2.97
2023-05-11T07:46:13.500Z,3.30
2023-05-11T07:48:40.565Z,2.63
2023-05-11T07:51:07.838Z,3.03
2023-05-11T07:53:35.034Z,2.43
2023-05-11T07:56:03.828Z,3.03
2023-05-11T07:58:30.820Z,2.97
2023-05-11T08:00:57.866Z,2.40
2023-05-11T08:03:25.027Z,2.40
2023-05-11T08:05:52.196Z,1.77
2023-05-11T08:08:25.372Z,2.17
2023-05-11T08:10:52.513Z,2.20
2023-05-11T08:13:20.151Z,1.90
2023-05-11T08:15:47.162Z,1.63
2023-05-11T08:18:14.419Z,2.00
2023-05-11T08:20:42.544Z,1.70
2023-05-11T08:23:11.276Z,1.83
2023-05-11T08:25:38.182Z,1.93
2023-05-11T08:28:05.049Z,1.97
2023-05-11T08:30:31.888Z,2.33
2023-05-11T08:32:59.447Z,2.10
2023-05-11T08:35:26.628Z,2.27
2023-05-11T08:37:53.436Z,1.73
2023-05-11T08:40:20.666Z,1.40
2023-05-11T08:42:49.908Z,1.60
2023-05-11T08:45:18.489Z,2.00
2023-05-11T08:47:46.484Z,1.63
2023-05-11T08:50:13.324Z,1.40
2023-05-11T08:52:40.993Z,1.63
2023-05-11T08:55:10.980Z,2.03
2023-05-11T08:57:38.985Z,1.67
2023-05-11T09:00:07.655Z,1.63
2023-05-11T09:02:35.214Z,1.20
2023-05-11T09:05:04.590Z,1.60
2023-05-11T09:07:32.128Z,1.70
2023-05-11T09:10:02.269Z,1.50
2023-05-11T09:12:29.362Z,1.57
2023-05-11T09:15:02.031Z,1.57
2023-05-11T09:17:29.817Z,1.40
2023-05-11T09:20:09.622Z,1.47
2023-05-11T09:22:47.129Z,2.13
2023-05-11T09:25:15.299Z,2.20
2023-05-11T09:27:46.515Z,1.90
2023-05-11T09:33:02.708Z,3.70
2023-05-11T09:35:31.844Z,3.77
2023-05-11T09:38:02.960Z,3.20
2023-05-11T09:40:34.215Z,3.10
2023-05-11T09:43:02.850Z,2.53
2023-05-11T09:45:37.161Z,3.07
2023-05-11T09:48:05.616Z,1.77
2023-05-11T09:50:33.949Z,2.30
2023-05-11T09:53:01.087Z,1.83
2023-05-11T09:55:28.201Z,1.73
2023-05-11T09:57:59.894Z,1.60
2023-05-11T10:00:27.232Z,2.60
2023-05-11T10:03:04.569Z,2.10
2023-05-11T10:05:36.087Z,1.53
2023-05-11T10:08:05.339Z,1.60
2023-05-11T10:10:35.431Z,0.97
2023-05-11T10:13:03.187Z,1.10
2023-05-11T10:15:30.855Z,1.03
2023-05-11T10:18:01.390Z,0.80
2023-05-11T10:20:29.032Z,0.93
2023-05-11T10:22:56.462Z,1.13
2023-05-11T10:25:25.101Z,0.80
2023-05-11T10:27:52.641Z,0.87
2023-05-11T10:30:19.965Z,1.40
2023-05-11T10:32:47.578Z,6.00
2023-05-11T10:35:14.822Z,3.73
2023-05-11T10:37:44.611Z,1.40
2023-05-11T10:40:12.131Z,3.37
2023-05-11T10:42:54.163Z,1.47
2023-05-11T10:45:30.492Z,1.00
2023-05-11T10:48:19.417Z,1.20
2023-05-11T10:51:01.128Z,2.20
2023-05-11T10:53:54.337Z,1.47
2023-05-11T10:56:26.209Z,1.13
2023-05-11T10:59:14.247Z,1.00
2023-05-11T11:01:42.201Z,0.87
2023-05-11T11:04:10.504Z,0.70
2023-05-11T11:06:44.323Z,0.93
2023-05-11T11:09:13.755Z,1.80
2023-05-11T11:11:42.817Z,0.97
2023-05-11T11:14:10.502Z,0.80
2023-05-11T11:16:37.696Z,1.20
2023-05-11T11:19:32.289Z,0.80
2023-05-11T11:22:00.539Z,0.73
2023-05-11T11:24:39.892Z,1.07
2023-05-11T11:27:08.528Z,1.47
2023-05-11T11:29:36.295Z,0.70
2023-05-11T11:32:22.100Z,0.80
2023-05-11T11:34:49.725Z,0.80
2023-05-11T11:37:17.967Z,0.67
2023-05-11T11:39:45.025Z,1.63
2023-05-11T11:42:12.954Z,0.90
2023-05-11T11:44:41.132Z,0.80
2023-05-11T11:47:14.228Z,0.57
2023-05-11T11:49:43.029Z,1.00
2023-05-11T11:52:14.646Z,0.80
2023-05-11T11:54:43.941Z,1.00
2023-05-11T11:57:35.296Z,0.90
2023-05-11T12:00:07.413Z,0.60
2023-05-11T12:02:35.199Z,0.50
2023-05-11T12:05:12.652Z,1.33
2023-05-11T12:07:43.901Z,0.87
2023-05-11T12:10:13.518Z,0.80
2023-05-11T12:12:41.368Z,0.90
2023-05-11T12:15:08.648Z,1.80
2023-05-11T12:17:38.712Z,1.30
2023-05-11T12:20:14.055Z,1.27
2023-05-11T12:22:41.239Z,2.30
2023-05-11T12:25:09.012Z,2.57
2023-05-11T12:27:36.682Z,1.50
2023-05-11T12:30:03.729Z,1.30
2023-05-11T12:32:31.912Z,1.07
2023-05-11T12:35:02.624Z,0.90
2023-05-11T12:37:31.189Z,0.70
2023-05-11T12:39:58.737Z,2.87
2023-05-11T12:42:26.107Z,1.40
2023-05-11T12:44:53.977Z,1.60
2023-05-11T12:47:20.840Z,0.80
2023-05-11T12:49:47.713Z,0.93
2023-05-11T12:52:14.564Z,0.80
2023-05-11T12:54:43.716Z,0.97
2023-05-11T12:57:25.191Z,0.67
2023-05-11T13:00:11.946Z,1.10
2023-05-11T13:02:50.025Z,1.20
2023-05-11T13:05:19.754Z,1.37
2023-05-11T13:07:47.580Z,1.00
2023-05-11T13:10:14.535Z,0.80
2023-05-11T13:12:51.978Z,0.90
2023-05-11T13:15:20.962Z,1.00
2023-05-11T13:17:48.772Z,1.23
2023-05-11T13:20:21.670Z,1.63
2023-05-11T13:22:49.634Z,1.40
2023-05-11T13:25:17.739Z,3.00
2023-05-11T13:27:44.827Z,2.60
2023-05-11T13:30:12.598Z,1.90
2023-05-11T13:32:39.951Z,0.93
2023-05-11T13:35:07.444Z,0.80
2023-05-11T13:37:34.369Z,0.50
2023-05-11T13:40:01.360Z,0.57
2023-05-11T13:42:29.388Z,0.80
2023-05-11T13:44:56.482Z,0.83
2023-05-11T13:47:23.455Z,1.30
2023-05-11T13:49:50.295Z,1.20
2023-05-11T13:52:17.152Z,1.37
2023-05-11T13:54:44.023Z,1.00
2023-05-11T13:57:11.056Z,0.90
2023-05-11T13:59:38.078Z,1.20
2023-05-11T14:02:05.088Z,0.70
2023-05-11T14:04:32.074Z,0.70
2023-05-11T14:06:59.194Z,1.00
2023-05-11T14:09:26.368Z,0.87
2023-05-11T14:11:53.170Z,0.90
2023-05-11T14:14:19.999Z,0.87
2023-05-11T14:16:46.789Z,0.83
2023-05-11T14:19:13.914Z,1.03
2023-05-11T14:21:40.909Z,1.00
2023-05-11T14:24:12.570Z,1.00
2023-05-11T14:26:40.241Z,0.90
2023-05-11T14:29:07.685Z,0.80
2023-05-11T14:31:35.910Z,0.80
2023-05-11T14:34:04.192Z,1.30
2023-05-11T14:36:32.024Z,1.13
2023-05-11T14:38:58.967Z,0.93
2023-05-11T14:41:25.931Z,0.87
2023-05-11T14:43:52.744Z,0.77
2023-05-11T14:46:19.760Z,0.80
2023-05-11T14:48:46.672Z,1.10
2023-05-11T14:51:13.691Z,1.00
2023-05-11T14:53:40.666Z,0.70
2023-05-11T14:56:07.787Z,0.80
2023-05-11T14:58:34.637Z,0.90
2023-05-11T15:01:01.524Z,0.90
2023-05-11T15:03:28.502Z,0.97
2023-05-11T15:05:55.378Z,0.93
2023-05-11T15:08:29.572Z,0.70
2023-05-11T15:10:57.527Z,0.83
2023-05-11T15:13:24.509Z,0.70
2023-05-11T15:15:52.263Z,0.90
2023-05-11T15:18:19.533Z,1.27
2023-05-11T15:20:46.748Z,0.90
2023-05-11T15:23:17.180Z,1.00
2023-05-11T15:25:47.131Z,0.83
2023-05-11T15:28:14.324Z,0.80
2023-05-11T15:30:42.319Z,0.73
2023-05-11T15:33:10.322Z,0.70
2023-05-11T15:35:38.098Z,0.80
2023-05-11T15:38:06.618Z,0.67
2023-05-11T15:40:33.503Z,0.97
2023-05-11T15:43:00.796Z,0.87
2023-05-11T15:45:28.080Z,0.80
2023-05-11T15:47:55.026Z,0.90
2023-05-11T15:50:22.390Z,1.03
2023-05-11T15:52:49.398Z,1.00
2023-05-11T15:55:16.464Z,1.20
2023-05-11T15:57:43.292Z,0.70
2023-05-11T16:00:11.597Z,0.50
2023-05-11T16:02:38.830Z,0.80
2023-05-11T16:05:06.152Z,0.70
2023-05-11T16:07:33.038Z,0.70
2023-05-11T16:09:59.970Z,1.10
2023-05-11T16:12:26.961Z,0.70
2023-05-11T16:14:53.743Z,0.80
2023-05-11T16:17:21.047Z,1.00
2023-05-11T16:19:47.879Z,0.60
2023-05-11T16:22:14.733Z,0.70
2023-05-11T16:24:41.697Z,0.97
2023-05-11T16:27:08.569Z,0.80
2023-05-11T16:29:35.667Z,0.70
2023-05-11T16:32:02.562Z,1.10
2023-05-11T16:34:29.417Z,0.70
2023-05-11T16:36:58.600Z,1.03
2023-05-11T16:39:25.902Z,0.83
2023-05-11T16:41:52.711Z,0.70
2023-05-11T16:44:19.616Z,0.63
2023-05-11T16:46:46.446Z,0.73
2023-05-11T16:49:13.366Z,1.03
2023-05-11T16:51:40.242Z,0.77
2023-05-11T16:54:07.368Z,1.07
2023-05-11T16:56:34.164Z,0.63
2023-05-11T16:59:01.056Z,0.40
2023-05-11T17:01:28.608Z,0.73
2023-05-11T17:03:55.508Z,0.60
2023-05-11T17:06:24.109Z,0.70
2023-05-11T17:08:51.468Z,0.50
2023-05-11T17:11:18.285Z,0.83
2023-05-11T17:13:45.156Z,0.53
2023-05-11T17:16:12.187Z,0.80
2023-05-11T17:18:39.104Z,0.80
2023-05-11T17:21:06.209Z,0.70
2023-05-11T17:23:34.088Z,0.67
2023-05-11T17:26:08.110Z,0.73
2023-05-11T17:28:34.932Z,1.30
2023-05-11T17:31:08.872Z,0.70
2023-05-11T17:33:35.813Z,1.00
2023-05-11T17:36:02.778Z,0.60
2023-05-11T17:38:29.797Z,0.77
2023-05-11T17:40:59.703Z,0.50
2023-05-11T17:43:26.738Z,0.70
2023-05-11T17:45:53.614Z,0.80
2023-05-11T17:48:20.454Z,1.10
2023-05-11T17:50:47.377Z,0.70
2023-05-11T17:53:14.242Z,0.80
2023-05-11T17:55:42.712Z,0.70
2023-05-11T17:58:10.058Z,0.87
2023-05-11T18:00:40.012Z,0.70
2023-05-11T18:03:06.974Z,0.67
2023-05-11T18:05:47.497Z,0.77
2023-05-11T18:08:15.689Z,0.77
2023-05-11T18:10:42.598Z,1.00
2023-05-11T18:13:09.914Z,1.00
2023-05-11T18:15:37.370Z,1.23
2023-05-11T18:18:04.293Z,1.00
2023-05-11T18:20:31.168Z,1.00
2023-05-11T18:22:58.390Z,0.93
2023-05-11T18:25:25.274Z,0.90
2023-05-11T18:27:52.267Z,0.90
2023-05-11T18:30:19.402Z,0.60
2023-05-11T18:32:46.530Z,0.70
2023-05-11T18:35:13.425Z,0.67
2023-05-11T18:37:40.366Z,0.80
2023-05-11T18:40:08.004Z,0.80
2023-05-11T18:42:34.794Z,0.80
2023-05-11T18:45:02.102Z,1.20
2023-05-11T18:47:29.057Z,0.60
2023-05-11T18:49:57.517Z,0.70
2023-05-11T18:52:24.377Z,0.77
2023-05-11T18:54:51.313Z,0.80
2023-05-11T18:57:20.473Z,0.80
2023-05-11T18:59:51.593Z,0.60
2023-05-11T19:02:19.794Z,0.70
2023-05-11T19:04:46.625Z,0.63
2023-05-11T19:07:13.465Z,1.13
2023-05-11T19:09:40.326Z,1.00
2023-05-11T19:12:07.598Z,0.53
2023-05-11T19:14:35.040Z,0.50
2023-05-11T19:17:04.780Z,0.87
2023-05-11T19:19:31.713Z,0.70
2023-05-11T19:21:59.442Z,0.60
2023-05-11T19:24:26.356Z,0.50
2023-05-11T19:27:05.945Z,0.60
2023-05-11T19:29:33.971Z,1.10
2023-05-11T19:32:01.028Z,1.10
2023-05-11T19:34:28.318Z,0.80
2023-05-11T19:36:55.127Z,0.77
2023-05-11T19:39:21.921Z,0.70
2023-05-11T19:41:48.774Z,0.70
2023-05-11T19:44:15.608Z,0.80
2023-05-11T19:46:47.012Z,1.10
2023-05-11T19:49:15.535Z,0.90
2023-05-11T19:51:43.375Z,0.80
2023-05-11T19:54:11.230Z,0.60
2023-05-11T19:56:38.531Z,0.57
